sensor_id;sensor_type;location;lat;lon;timestamp;pressure;altitude;pressure_sealevel;temperature;humidity
3590;BME280;1809;48.470;9.226;2022-10-17T00:00:39;97387.63;;;15.17;100.00
3590;BME280;1809;48.470;9.226;2022-10-17T00:03:05;97393.94;;;15.35;100.00
3590;BME280;1809;48.470;9.226;2022-10-17T00:05:30;97390.38;;;15.26;100.00
3590;BME280;1809;48.470;9.226;2022-10-17T00:07:55;97391.38;;;15.30;100.00
3590;BME280;1809;48.470;9.226;2022-10-17T00:10:21;97400.91;;;15.36;100.00
3590;BME280;1809;48.470;9.226;2022-10-17T00:12:47;97394.53;;;15.32;100.00
3590;BME280;1809;48.470;9.226;2022-10-17T00:15:17;97402.03;;;15.35;100.00
3590;BME280;1809;48.470;9.226;2022-10-17T00:17:42;97396.75;;;15.30;100.00
3590;BME280;1809;48.470;9.226;2022-10-17T00:20:08;97396.38;;;15.23;100.00
3590;BME280;1809;48.470;9.226;2022-10-17T00:22:34;97399.25;;;15.04;100.00
3590;BME280;1809;48.470;9.226;2022-10-17T00:24:59;97407.66;;;15.02;100.00
3590;BME280;1809;48.470;9.226;2022-10-17T00:27:24;97402.63;;;14.87;100.00
3590;BME280;1809;48.470;9.226;2022-10-17T00:29:50;97408.34;;;14.72;100.00
3590;BME280;1809;48.470;9.226;2022-10-17T00:32:17;97400.38;;;14.67;100.00
3590;BME280;1809;48.470;9.226;2022-10-17T00:34:42;97413.16;;;14.62;100.00
3590;BME280;1809;48.470;9.226;2022-10-17T00:37:08;97409.19;;;14.59;100.00
3590;BME280;1809;48.470;9.226;2022-10-17T00:39:34;97418.56;;;14.48;100.00
3590;BME280;1809;48.470;9.226;2022-10-17T00:41:59;97424.94;;;14.38;100.00
3590;BME280;1809;48.470;9.226;2022-10-17T00:46:53;97424.53;;;14.18;100.00
3590;BME280;1809;48.470;9.226;2022-10-17T00:49:19;97423.16;;;14.07;100.00
3590;BME280;1809;48.470;9.226;2022-10-17T00:51:48;97420.63;;;13.96;100.00
3590;BME280;1809;48.470;9.226;2022-10-17T00:54:16;97418.66;;;13.88;100.00
3590;BME280;1809;48.470;9.226;2022-10-17T00:56:44;97420.03;;;13.86;100.00
3590;BME280;1809;48.470;9.226;2022-10-17T00:59:12;97418.31;;;13.76;100.00
3590;BME280;1809;48.470;9.226;2022-10-17T01:01:47;97418.91;;;13.73;100.00
3590;BME280;1809;48.470;9.226;2022-10-17T01:04:16;97419.81;;;13.69;100.00
3590;BME280;1809;48.470;9.226;2022-10-17T01:06:42;97414.91;;;13.57;100.00
3590;BME280;1809;48.470;9.226;2022-10-17T01:09:07;97421.47;;;13.51;100.00
3590;BME280;1809;48.470;9.226;2022-10-17T01:11:49;97415.69;;;13.44;100.00
3590;BME280;1809;48.470;9.226;2022-10-17T01:17:39;97422.22;;;13.38;100.00
3590;BME280;1809;48.470;9.226;2022-10-17T01:19:58;97416.44;;;13.31;100.00
3590;BME280;1809;48.470;9.226;2022-10-17T01:28:00;97408.47;;;13.07;100.00
3590;BME280;1809;48.470;9.226;2022-10-17T01:33:16;97411.06;;;12.93;100.00
3590;BME280;1809;48.470;9.226;2022-10-17T01:35:54;97413.84;;;12.88;100.00
3590;BME280;1809;48.470;9.226;2022-10-17T01:38:29;97419.22;;;12.88;100.00
3590;BME280;1809;48.470;9.226;2022-10-17T01:41:04;97414.84;;;12.92;100.00
3590;BME280;1809;48.470;9.226;2022-10-17T01:43:50;97417.84;;;12.91;100.00
3590;BME280;1809;48.470;9.226;2022-10-17T01:46:34;97412.25;;;12.87;100.00
3590;BME280;1809;48.470;9.226;2022-10-17T01:49:01;97406.44;;;12.80;100.00
3590;BME280;1809;48.470;9.226;2022-10-17T01:51:45;97401.66;;;12.77;100.00
3590;BME280;1809;48.470;9.226;2022-10-17T01:54:39;97401.72;;;12.72;100.00
3590;BME280;1809;48.470;9.226;2022-10-17T01:57:13;97394.91;;;12.61;100.00
3590;BME280;1809;48.470;9.226;2022-10-17T01:59:41;97390.09;;;12.58;100.00
3590;BME280;1809;48.470;9.226;2022-10-17T02:02:10;97385.41;;;12.50;100.00
3590;BME280;1809;48.470;9.226;2022-10-17T02:04:39;97387.00;;;12.51;100.00
3590;BME280;1809;48.470;9.226;2022-10-17T02:07:07;97384.38;;;12.46;100.00
3590;BME280;1809;48.470;9.226;2022-10-17T02:09:33;97384.94;;;12.43;100.00
3590;BME280;1809;48.470;9.226;2022-10-17T02:14:49;97382.84;;;12.40;100.00
3590;BME280;1809;48.470;9.226;2022-10-17T02:27:52;97401.31;;;12.23;100.00
3590;BME280;1809;48.470;9.226;2022-10-17T02:30:40;97397.09;;;12.17;100.00
3590;BME280;1809;48.470;9.226;2022-10-17T02:33:15;97398.44;;;12.14;100.00
3590;BME280;1809;48.470;9.226;2022-10-17T02:35:47;97408.41;;;12.14;100.00
3590;BME280;1809;48.470;9.226;2022-10-17T02:38:15;97410.31;;;12.08;100.00
3590;BME280;1809;48.470;9.226;2022-10-17T02:40:43;97406.34;;;12.06;100.00
3590;BME280;1809;48.470;9.226;2022-10-17T02:43:10;97406.63;;;12.04;100.00
3590;BME280;1809;48.470;9.226;2022-10-17T02:45:37;97408.53;;;12.04;100.00
3590;BME280;1809;48.470;9.226;2022-10-17T02:48:08;97406.91;;;12.03;100.00
3590;BME280;1809;48.470;9.226;2022-10-17T02:50:51;97403.16;;;12.04;100.00
3590;BME280;1809;48.470;9.226;2022-10-17T02:56:26;97391.50;;;12.13;100.00
3590;BME280;1809;48.470;9.226;2022-10-17T02:58:57;97389.44;;;12.29;100.00
3590;BME280;1809;48.470;9.226;2022-10-17T03:01:24;97389.75;;;12.46;100.00
3590;BME280;1809;48.470;9.226;2022-10-17T03:03:50;97386.34;;;12.59;100.00
3590;BME280;1809;48.470;9.226;2022-10-17T03:06:16;97395.06;;;12.51;100.00
3590;BME280;1809;48.470;9.226;2022-10-17T03:08:42;97386.66;;;12.58;100.00
3590;BME280;1809;48.470;9.226;2022-10-17T03:11:07;97389.59;;;12.56;100.00
3590;BME280;1809;48.470;9.226;2022-10-17T03:13:33;97382.00;;;12.63;100.00
3590;BME280;1809;48.470;9.226;2022-10-17T03:15:58;97393.16;;;12.52;100.00
3590;BME280;1809;48.470;9.226;2022-10-17T03:18:24;97396.72;;;12.47;100.00
3590;BME280;1809;48.470;9.226;2022-10-17T03:20:50;97402.16;;;12.42;100.00
3590;BME280;1809;48.470;9.226;2022-10-17T03:23:15;97401.41;;;12.36;100.00
3590;BME280;1809;48.470;9.226;2022-10-17T03:25:41;97394.81;;;12.29;100.00
3590;BME280;1809;48.470;9.226;2022-10-17T03:28:06;97408.06;;;12.20;100.00
3590;BME280;1809;48.470;9.226;2022-10-17T03:30:32;97400.06;;;12.15;100.00
3590;BME280;1809;48.470;9.226;2022-10-17T03:32:58;97410.13;;;12.05;100.00
3590;BME280;1809;48.470;9.226;2022-10-17T03:35:24;97402.66;;;12.02;100.00
3590;BME280;1809;48.470;9.226;2022-10-17T03:37:50;97414.00;;;11.94;100.00
3590;BME280;1809;48.470;9.226;2022-10-17T03:40:15;97415.13;;;11.88;100.00
3590;BME280;1809;48.470;9.226;2022-10-17T03:42:41;97412.19;;;11.89;100.00
3590;BME280;1809;48.470;9.226;2022-10-17T03:45:07;97414.66;;;11.80;100.00
3590;BME280;1809;48.470;9.226;2022-10-17T03:47:32;97420.59;;;11.77;100.00
3590;BME280;1809;48.470;9.226;2022-10-17T03:49:58;97412.84;;;11.76;100.00
3590;BME280;1809;48.470;9.226;2022-10-17T03:52:23;97423.56;;;11.76;100.00
3590;BME280;1809;48.470;9.226;2022-10-17T03:54:49;97419.00;;;11.76;100.00
3590;BME280;1809;48.470;9.226;2022-10-17T03:57:16;97426.50;;;11.74;100.00
3590;BME280;1809;48.470;9.226;2022-10-17T03:59:41;97422.81;;;11.70;100.00
3590;BME280;1809;48.470;9.226;2022-10-17T04:02:06;97418.84;;;11.63;100.00
3590;BME280;1809;48.470;9.226;2022-10-17T04:04:32;97425.00;;;11.63;100.00
3590;BME280;1809;48.470;9.226;2022-10-17T04:06:57;97415.09;;;11.64;100.00
3590;BME280;1809;48.470;9.226;2022-10-17T04:09:22;97419.63;;;11.63;100.00
3590;BME280;1809;48.470;9.226;2022-10-17T04:11:48;97406.28;;;11.58;100.00
3590;BME280;1809;48.470;9.226;2022-10-17T04:14:13;97412.81;;;11.47;100.00
3590;BME280;1809;48.470;9.226;2022-10-17T04:16:38;97419.31;;;11.41;100.00
3590;BME280;1809;48.470;9.226;2022-10-17T04:19:04;97419.94;;;11.33;100.00
3590;BME280;1809;48.470;9.226;2022-10-17T04:21:29;97417.28;;;11.28;100.00
3590;BME280;1809;48.470;9.226;2022-10-17T04:23:59;97421.59;;;11.24;100.00
3590;BME280;1809;48.470;9.226;2022-10-17T04:26:25;97426.41;;;11.27;100.00
3590;BME280;1809;48.470;9.226;2022-10-17T04:28:51;97421.06;;;11.27;100.00
3590;BME280;1809;48.470;9.226;2022-10-17T04:31:17;97416.72;;;11.31;100.00
3590;BME280;1809;48.470;9.226;2022-10-17T04:33:45;97422.63;;;11.28;100.00
3590;BME280;1809;48.470;9.226;2022-10-17T04:36:13;97423.25;;;11.20;100.00
3590;BME280;1809;48.470;9.226;2022-10-17T04:38:39;97421.13;;;11.17;100.00
3590;BME280;1809;48.470;9.226;2022-10-17T04:41:07;97416.34;;;11.14;100.00
3590;BME280;1809;48.470;9.226;2022-10-17T04:43:35;97420.63;;;11.10;100.00
3590;BME280;1809;48.470;9.226;2022-10-17T04:46:02;97424.34;;;11.14;100.00
3590;BME280;1809;48.470;9.226;2022-10-17T04:48:29;97424.91;;;11.11;100.00
3590;BME280;1809;48.470;9.226;2022-10-17T04:51:00;97415.28;;;11.10;100.00
3590;BME280;1809;48.470;9.226;2022-10-17T04:53:27;97428.41;;;11.11;100.00
3590;BME280;1809;48.470;9.226;2022-10-17T04:55:54;97429.66;;;11.19;100.00
3590;BME280;1809;48.470;9.226;2022-10-17T04:58:20;97424.31;;;11.19;100.00
3590;BME280;1809;48.470;9.226;2022-10-17T05:00:46;97424.88;;;11.16;100.00
3590;BME280;1809;48.470;9.226;2022-10-17T05:03:11;97430.22;;;11.16;100.00
3590;BME280;1809;48.470;9.226;2022-10-17T05:05:37;97430.28;;;11.11;100.00
3590;BME280;1809;48.470;9.226;2022-10-17T05:08:04;97426.81;;;11.05;100.00
3590;BME280;1809;48.470;9.226;2022-10-17T05:10:30;97425.50;;;11.03;100.00
3590;BME280;1809;48.470;9.226;2022-10-17T05:12:59;97430.34;;;11.01;100.00
3590;BME280;1809;48.470;9.226;2022-10-17T05:15:25;97419.63;;;11.01;100.00
3590;BME280;1809;48.470;9.226;2022-10-17T05:17:53;97420.25;;;10.93;100.00
3590;BME280;1809;48.470;9.226;2022-10-17T05:20:19;97421.56;;;10.90;100.00
3590;BME280;1809;48.470;9.226;2022-10-17T05:22:44;97416.78;;;10.87;100.00
3590;BME280;1809;48.470;9.226;2022-10-17T05:25:09;97424.56;;;10.84;100.00
3590;BME280;1809;48.470;9.226;2022-10-17T05:27:35;97420.84;;;10.79;100.00
3590;BME280;1809;48.470;9.226;2022-10-17T05:30:00;97417.38;;;10.79;100.00
3590;BME280;1809;48.470;9.226;2022-10-17T05:32:28;97414.16;;;10.82;100.00
3590;BME280;1809;48.470;9.226;2022-10-17T05:34:53;97419.75;;;10.86;100.00
3590;BME280;1809;48.470;9.226;2022-10-17T05:37:19;97412.97;;;10.98;100.00
3590;BME280;1809;48.470;9.226;2022-10-17T05:39:44;97419.03;;;11.09;100.00
3590;BME280;1809;48.470;9.226;2022-10-17T05:42:09;97416.66;;;11.07;100.00
3590;BME280;1809;48.470;9.226;2022-10-17T05:44:35;97423.38;;;11.05;100.00
3590;BME280;1809;48.470;9.226;2022-10-17T05:47:00;97416.97;;;11.01;100.00
3590;BME280;1809;48.470;9.226;2022-10-17T05:49:26;97423.13;;;11.01;100.00
3590;BME280;1809;48.470;9.226;2022-10-17T05:51:51;97423.88;;;11.07;100.00
3590;BME280;1809;48.470;9.226;2022-10-17T05:54:16;97418.47;;;11.12;100.00
3590;BME280;1809;48.470;9.226;2022-10-17T05:56:42;97427.59;;;11.11;100.00
3590;BME280;1809;48.470;9.226;2022-10-17T05:59:07;97427.75;;;11.24;100.00
3590;BME280;1809;48.470;9.226;2022-10-17T06:01:32;97429.03;;;11.32;100.00
3590;BME280;1809;48.470;9.226;2022-10-17T06:03:58;97428.91;;;11.47;100.00
3590;BME280;1809;48.470;9.226;2022-10-17T06:06:23;97435.88;;;11.43;100.00
3590;BME280;1809;48.470;9.226;2022-10-17T06:08:48;97435.84;;;11.48;100.00
3590;BME280;1809;48.470;9.226;2022-10-17T06:11:14;97434.72;;;11.54;100.00
3590;BME280;1809;48.470;9.226;2022-10-17T06:13:39;97438.25;;;11.50;100.00
3590;BME280;1809;48.470;9.226;2022-10-17T06:16:05;97446.53;;;11.53;100.00
3590;BME280;1809;48.470;9.226;2022-10-17T06:18:33;97455.13;;;11.50;100.00
3590;BME280;1809;48.470;9.226;2022-10-17T06:21:10;97452.34;;;11.60;100.00
3590;BME280;1809;48.470;9.226;2022-10-17T06:23:35;97448.03;;;11.64;100.00
3590;BME280;1809;48.470;9.226;2022-10-17T06:26:03;97448.53;;;11.71;100.00
3590;BME280;1809;48.470;9.226;2022-10-17T06:28:29;97449.31;;;11.72;100.00
3590;BME280;1809;48.470;9.226;2022-10-17T06:30:54;97451.72;;;11.73;100.00
3590;BME280;1809;48.470;9.226;2022-10-17T06:33:19;97445.28;;;11.74;100.00
3590;BME280;1809;48.470;9.226;2022-10-17T06:35:55;97449.78;;;11.79;100.00
3590;BME280;1809;48.470;9.226;2022-10-17T06:38:21;97464.78;;;11.80;100.00
3590;BME280;1809;48.470;9.226;2022-10-17T06:40:46;97462.91;;;11.80;100.00
3590;BME280;1809;48.470;9.226;2022-10-17T06:43:12;97462.91;;;11.80;100.00
3590;BME280;1809;48.470;9.226;2022-10-17T06:45:40;97470.91;;;11.85;100.00
3590;BME280;1809;48.470;9.226;2022-10-17T06:48:06;97473.84;;;11.84;100.00
3590;BME280;1809;48.470;9.226;2022-10-17T06:50:33;97482.06;;;11.93;100.00
3590;BME280;1809;48.470;9.226;2022-10-17T06:53:03;97472.34;;;12.02;100.00
3590;BME280;1809;48.470;9.226;2022-10-17T06:55:30;97480.34;;;12.07;100.00
3590;BME280;1809;48.470;9.226;2022-10-17T06:57:55;97474.34;;;12.15;100.00
3590;BME280;1809;48.470;9.226;2022-10-17T07:00:21;97492.72;;;12.26;100.00
3590;BME280;1809;48.470;9.226;2022-10-17T07:02:48;97494.53;;;12.31;100.00
3590;BME280;1809;48.470;9.226;2022-10-17T07:05:13;97498.19;;;12.40;100.00
3590;BME280;1809;48.470;9.226;2022-10-17T07:07:39;97510.47;;;12.46;100.00
3590;BME280;1809;48.470;9.226;2022-10-17T07:10:04;97501.81;;;12.54;100.00
3590;BME280;1809;48.470;9.226;2022-10-17T07:12:33;97511.47;;;12.74;100.00
3590;BME280;1809;48.470;9.226;2022-10-17T07:14:59;97523.91;;;12.88;100.00
3590;BME280;1809;48.470;9.226;2022-10-17T07:17:30;97525.28;;;13.05;100.00
3590;BME280;1809;48.470;9.226;2022-10-17T07:19:55;97527.97;;;13.10;100.00
3590;BME280;1809;48.470;9.226;2022-10-17T07:22:21;97531.81;;;13.22;100.00
3590;BME280;1809;48.470;9.226;2022-10-17T07:24:46;97537.66;;;13.43;100.00
3590;BME280;1809;48.470;9.226;2022-10-17T07:27:13;97542.31;;;13.56;100.00
3590;BME280;1809;48.470;9.226;2022-10-17T07:29:38;97544.53;;;13.68;100.00
3590;BME280;1809;48.470;9.226;2022-10-17T07:32:04;97546.16;;;13.69;100.00
3590;BME280;1809;48.470;9.226;2022-10-17T07:34:35;97550.03;;;13.76;100.00
3590;BME280;1809;48.470;9.226;2022-10-17T07:37:00;97558.25;;;13.85;100.00
3590;BME280;1809;48.470;9.226;2022-10-17T07:39:26;97559.56;;;13.87;100.00
3590;BME280;1809;48.470;9.226;2022-10-17T07:41:52;97557.31;;;13.94;100.00
3590;BME280;1809;48.470;9.226;2022-10-17T07:44:17;97553.94;;;14.02;100.00
3590;BME280;1809;48.470;9.226;2022-10-17T07:46:42;97564.53;;;14.13;100.00
3590;BME280;1809;48.470;9.226;2022-10-17T07:49:08;97576.78;;;14.19;100.00
3590;BME280;1809;48.470;9.226;2022-10-17T07:51:33;97568.63;;;14.24;100.00
3590;BME280;1809;48.470;9.226;2022-10-17T07:53:58;97569.19;;;14.39;100.00
3590;BME280;1809;48.470;9.226;2022-10-17T07:56:24;97577.88;;;14.50;100.00
3590;BME280;1809;48.470;9.226;2022-10-17T07:58:50;97571.59;;;14.68;100.00
3590;BME280;1809;48.470;9.226;2022-10-17T08:01:16;97574.09;;;14.65;100.00
3590;BME280;1809;48.470;9.226;2022-10-17T08:03:45;97576.06;;;14.73;100.00
3590;BME280;1809;48.470;9.226;2022-10-17T08:06:11;97575.28;;;14.72;100.00
3590;BME280;1809;48.470;9.226;2022-10-17T08:08:37;97576.97;;;14.95;100.00
3590;BME280;1809;48.470;9.226;2022-10-17T08:11:04;97575.28;;;14.99;100.00
3590;BME280;1809;48.470;9.226;2022-10-17T08:13:30;97581.25;;;15.10;100.00
3590;BME280;1809;48.470;9.226;2022-10-17T08:16:04;97580.34;;;15.28;100.00
3590;BME280;1809;48.470;9.226;2022-10-17T08:18:30;97571.84;;;15.35;100.00
3590;BME280;1809;48.470;9.226;2022-10-17T08:20:58;97577.41;;;15.52;100.00
3590;BME280;1809;48.470;9.226;2022-10-17T08:23:24;97568.88;;;15.72;100.00
3590;BME280;1809;48.470;9.226;2022-10-17T08:25:49;97578.78;;;15.85;100.00
3590;BME280;1809;48.470;9.226;2022-10-17T08:28:15;97579.53;;;15.99;100.00
3590;BME280;1809;48.470;9.226;2022-10-17T08:30:40;97579.16;;;16.14;100.00
3590;BME280;1809;48.470;9.226;2022-10-17T08:33:05;97581.47;;;16.30;100.00
3590;BME280;1809;48.470;9.226;2022-10-17T08:35:30;97593.44;;;16.37;100.00
3590;BME280;1809;48.470;9.226;2022-10-17T08:37:57;97602.19;;;16.65;100.00
3590;BME280;1809;48.470;9.226;2022-10-17T08:40:27;97603.97;;;16.78;100.00
3590;BME280;1809;48.470;9.226;2022-10-17T08:45:55;97606.59;;;17.00;100.00
3590;BME280;1809;48.470;9.226;2022-10-17T08:48:26;97612.06;;;17.17;100.00
3590;BME280;1809;48.470;9.226;2022-10-17T08:50:58;97621.16;;;17.30;100.00
3590;BME280;1809;48.470;9.226;2022-10-17T08:55:54;97632.84;;;17.56;100.00
3590;BME280;1809;48.470;9.226;2022-10-17T08:58:30;97630.50;;;17.89;100.00
3590;BME280;1809;48.470;9.226;2022-10-17T09:06:24;97617.53;;;18.55;100.00
3590;BME280;1809;48.470;9.226;2022-10-17T09:11:58;97611.00;;;18.94;100.00
3590;BME280;1809;48.470;9.226;2022-10-17T09:19:31;97626.31;;;19.86;100.00
3590;BME280;1809;48.470;9.226;2022-10-17T09:22:01;97627.13;;;20.19;100.00
3590;BME280;1809;48.470;9.226;2022-10-17T09:24:42;97628.59;;;20.17;100.00
3590;BME280;1809;48.470;9.226;2022-10-17T09:29:54;97620.84;;;20.60;100.00
3590;BME280;1809;48.470;9.226;2022-10-17T09:32:24;97619.66;;;20.82;100.00
3590;BME280;1809;48.470;9.226;2022-10-17T09:34:51;97607.97;;;20.93;100.00
3590;BME280;1809;48.470;9.226;2022-10-17T09:37:17;97622.13;;;20.99;100.00
3590;BME280;1809;48.470;9.226;2022-10-17T09:39:43;97626.72;;;21.19;100.00
3590;BME280;1809;48.470;9.226;2022-10-17T09:42:13;97629.69;;;21.26;100.00
3590;BME280;1809;48.470;9.226;2022-10-17T09:47:38;97614.78;;;21.60;100.00
3590;BME280;1809;48.470;9.226;2022-10-17T09:50:19;97626.81;;;21.47;100.00
3590;BME280;1809;48.470;9.226;2022-10-17T09:52:47;97625.09;;;21.67;100.00
3590;BME280;1809;48.470;9.226;2022-10-17T09:57:56;97624.28;;;22.18;100.00
3590;BME280;1809;48.470;9.226;2022-10-17T10:00:27;97624.25;;;22.30;100.00
3590;BME280;1809;48.470;9.226;2022-10-17T10:03:25;97619.00;;;22.37;100.00
3590;BME280;1809;48.470;9.226;2022-10-17T10:06:01;97620.00;;;22.61;100.00
3590;BME280;1809;48.470;9.226;2022-10-17T10:08:35;97618.13;;;22.77;100.00
3590;BME280;1809;48.470;9.226;2022-10-17T10:11:04;97616.38;;;23.00;100.00
3590;BME280;1809;48.470;9.226;2022-10-17T10:13:32;97619.53;;;23.18;100.00
3590;BME280;1809;48.470;9.226;2022-10-17T10:16:21;97616.06;;;23.36;100.00
3590;BME280;1809;48.470;9.226;2022-10-17T10:18:48;97609.78;;;23.67;100.00
3590;BME280;1809;48.470;9.226;2022-10-17T10:21:17;97613.84;;;23.92;100.00
3590;BME280;1809;48.470;9.226;2022-10-17T10:24:10;97619.06;;;24.17;100.00
3590;BME280;1809;48.470;9.226;2022-10-17T10:26:37;97622.09;;;24.12;100.00
3590;BME280;1809;48.470;9.226;2022-10-17T10:29:32;97625.88;;;24.26;100.00
3590;BME280;1809;48.470;9.226;2022-10-17T10:32:09;97629.00;;;24.25;100.00
3590;BME280;1809;48.470;9.226;2022-10-17T10:34:47;97626.44;;;24.35;100.00
3590;BME280;1809;48.470;9.226;2022-10-17T10:37:20;97627.16;;;24.51;100.00
3590;BME280;1809;48.470;9.226;2022-10-17T10:39:51;97634.31;;;24.79;100.00
3590;BME280;1809;48.470;9.226;2022-10-17T10:42:28;97641.69;;;24.97;100.00
3590;BME280;1809;48.470;9.226;2022-10-17T10:45:11;97646.44;;;25.00;100.00
3590;BME280;1809;48.470;9.226;2022-10-17T10:47:49;97647.06;;;25.13;100.00
3590;BME280;1809;48.470;9.226;2022-10-17T10:50:24;97649.78;;;25.13;100.00
3590;BME280;1809;48.470;9.226;2022-10-17T10:55:50;97652.59;;;25.39;100.00
3590;BME280;1809;48.470;9.226;2022-10-17T10:58:25;97649.97;;;25.46;100.00
3590;BME280;1809;48.470;9.226;2022-10-17T11:00:52;97655.25;;;25.58;100.00
3590;BME280;1809;48.470;9.226;2022-10-17T11:03:25;97647.56;;;25.67;100.00
3590;BME280;1809;48.470;9.226;2022-10-17T11:06:27;97644.91;;;25.48;100.00
3590;BME280;1809;48.470;9.226;2022-10-17T11:11:47;97648.72;;;25.66;100.00
3590;BME280;1809;48.470;9.226;2022-10-17T11:17:04;97654.31;;;25.74;100.00
3590;BME280;1809;48.470;9.226;2022-10-17T11:19:37;97647.78;;;25.55;100.00
3590;BME280;1809;48.470;9.226;2022-10-17T11:25:16;97649.31;;;25.53;100.00
3590;BME280;1809;48.470;9.226;2022-10-17T11:27:44;97652.81;;;25.53;100.00
3590;BME280;1809;48.470;9.226;2022-10-17T11:30:16;97648.53;;;25.52;100.00
3590;BME280;1809;48.470;9.226;2022-10-17T11:32:54;97639.34;;;25.45;100.00
3590;BME280;1809;48.470;9.226;2022-10-17T11:35:42;97647.22;;;25.46;100.00
3590;BME280;1809;48.470;9.226;2022-10-17T11:38:20;97645.03;;;25.33;100.00
3590;BME280;1809;48.470;9.226;2022-10-17T11:40:49;97647.19;;;25.20;100.00
3590;BME280;1809;48.470;9.226;2022-10-17T11:43:35;97649.63;;;25.02;100.00
3590;BME280;1809;48.470;9.226;2022-10-17T11:49:21;97649.56;;;24.99;100.00
3590;BME280;1809;48.470;9.226;2022-10-17T11:52:02;97645.78;;;25.07;100.00
3590;BME280;1809;48.470;9.226;2022-10-17T11:54:37;97643.22;;;24.95;100.00
3590;BME280;1809;48.470;9.226;2022-10-17T11:57:16;97647.56;;;24.96;100.00
3590;BME280;1809;48.470;9.226;2022-10-17T12:00:19;97649.69;;;25.06;100.00
3590;BME280;1809;48.470;9.226;2022-10-17T12:02:50;97659.66;;;24.95;100.00
3590;BME280;1809;48.470;9.226;2022-10-17T12:05:43;97657.94;;;24.87;100.00
3590;BME280;1809;48.470;9.226;2022-10-17T12:08:24;97653.75;;;24.93;100.00
3590;BME280;1809;48.470;9.226;2022-10-17T12:11:02;97662.97;;;24.85;100.00
3590;BME280;1809;48.470;9.226;2022-10-17T12:18:48;97664.78;;;24.77;100.00
3590;BME280;1809;48.470;9.226;2022-10-17T12:21:16;97652.91;;;24.70;100.00
3590;BME280;1809;48.470;9.226;2022-10-17T12:23:53;97655.88;;;24.61;100.00
3590;BME280;1809;48.470;9.226;2022-10-17T12:26:26;97664.50;;;24.63;100.00
3590;BME280;1809;48.470;9.226;2022-10-17T12:28:53;97656.53;;;24.54;100.00
3590;BME280;1809;48.470;9.226;2022-10-17T12:33:57;97665.03;;;24.69;100.00
3590;BME280;1809;48.470;9.226;2022-10-17T12:46:47;97669.47;;;24.77;100.00
3590;BME280;1809;48.470;9.226;2022-10-17T12:49:20;97654.84;;;24.88;100.00
3590;BME280;1809;48.470;9.226;2022-10-17T12:52:15;97652.97;;;24.92;100.00
3590;BME280;1809;48.470;9.226;2022-10-17T12:54:47;97654.63;;;24.97;100.00
3590;BME280;1809;48.470;9.226;2022-10-17T12:59:46;97661.25;;;24.96;100.00
3590;BME280;1809;48.470;9.226;2022-10-17T13:02:19;97648.41;;;25.00;100.00
3590;BME280;1809;48.470;9.226;2022-10-17T13:04:46;97656.31;;;25.05;100.00
3590;BME280;1809;48.470;9.226;2022-10-17T13:07:20;97659.84;;;25.05;100.00
3590;BME280;1809;48.470;9.226;2022-10-17T13:09:46;97656.78;;;25.10;100.00
3590;BME280;1809;48.470;9.226;2022-10-17T13:12:22;97666.53;;;25.08;100.00
3590;BME280;1809;48.470;9.226;2022-10-17T13:14:50;97664.66;;;25.12;100.00
3590;BME280;1809;48.470;9.226;2022-10-17T13:17:25;97666.22;;;25.13;100.00
3590;BME280;1809;48.470;9.226;2022-10-17T13:19:51;97664.66;;;25.12;100.00
3590;BME280;1809;48.470;9.226;2022-10-17T13:22:22;97659.66;;;25.18;100.00
3590;BME280;1809;48.470;9.226;2022-10-17T13:24:50;97669.47;;;25.19;100.00
3590;BME280;1809;48.470;9.226;2022-10-17T13:27:42;97669.28;;;25.08;100.00
3590;BME280;1809;48.470;9.226;2022-10-17T13:30:37;97671.16;;;25.04;100.00
3590;BME280;1809;48.470;9.226;2022-10-17T13:33:03;97672.06;;;24.89;100.00
3590;BME280;1809;48.470;9.226;2022-10-17T13:35:40;97680.16;;;25.04;100.00
3590;BME280;1809;48.470;9.226;2022-10-17T13:38:05;97692.63;;;25.02;100.00
3590;BME280;1809;48.470;9.226;2022-10-17T13:40:39;97680.72;;;25.13;100.00
3590;BME280;1809;48.470;9.226;2022-10-17T13:43:19;97684.56;;;25.09;100.00
3590;BME280;1809;48.470;9.226;2022-10-17T13:45:48;97681.09;;;25.12;100.00
3590;BME280;1809;48.470;9.226;2022-10-17T13:48:24;97672.63;;;25.21;100.00
3590;BME280;1809;48.470;9.226;2022-10-17T13:50:52;97684.25;;;25.14;100.00
3590;BME280;1809;48.470;9.226;2022-10-17T13:53:33;97682.38;;;25.18;100.00
3590;BME280;1809;48.470;9.226;2022-10-17T13:56:05;97682.72;;;25.17;98.66
3590;BME280;1809;48.470;9.226;2022-10-17T13:58:50;97686.56;;;25.12;100.00
3590;BME280;1809;48.470;9.226;2022-10-17T14:01:16;97679.50;;;25.11;100.00
3590;BME280;1809;48.470;9.226;2022-10-17T14:03:44;97674.44;;;25.13;100.00
3590;BME280;1809;48.470;9.226;2022-10-17T14:08:57;97684.00;;;25.00;100.00
3590;BME280;1809;48.470;9.226;2022-10-17T14:13:55;97684.84;;;25.04;100.00
3590;BME280;1809;48.470;9.226;2022-10-17T14:16:22;97683.94;;;24.96;100.00
3590;BME280;1809;48.470;9.226;2022-10-17T14:18:50;97678.97;;;24.83;100.00
3590;BME280;1809;48.470;9.226;2022-10-17T14:21:22;97686.03;;;24.84;100.00
3590;BME280;1809;48.470;9.226;2022-10-17T14:23:48;97691.41;;;24.80;100.00
3590;BME280;1809;48.470;9.226;2022-10-17T14:28:49;97685.00;;;24.73;100.00
3590;BME280;1809;48.470;9.226;2022-10-17T14:33:46;97695.38;;;24.63;100.00
3590;BME280;1809;48.470;9.226;2022-10-17T14:36:13;97701.31;;;24.66;100.00
3590;BME280;1809;48.470;9.226;2022-10-17T14:38:44;97691.94;;;24.67;100.00
3590;BME280;1809;48.470;9.226;2022-10-17T14:41:24;97697.28;;;24.59;100.00
3590;BME280;1809;48.470;9.226;2022-10-17T14:43:58;97696.41;;;24.55;100.00
3590;BME280;1809;48.470;9.226;2022-10-17T14:46:24;97691.09;;;24.43;100.00
3590;BME280;1809;48.470;9.226;2022-10-17T14:48:52;97691.09;;;24.43;100.00
3590;BME280;1809;48.470;9.226;2022-10-17T14:51:18;97696.97;;;24.45;100.00
3590;BME280;1809;48.470;9.226;2022-10-17T14:54:23;97697.56;;;24.35;100.00
3590;BME280;1809;48.470;9.226;2022-10-17T14:56:50;97699.00;;;24.29;100.00
3590;BME280;1809;48.470;9.226;2022-10-17T14:59:17;97694.75;;;24.13;100.00
3590;BME280;1809;48.470;9.226;2022-10-17T15:01:47;97701.13;;;24.20;100.00
3590;BME280;1809;48.470;9.226;2022-10-17T15:04:13;97705.31;;;23.98;100.00
3590;BME280;1809;48.470;9.226;2022-10-17T15:06:38;97699.94;;;24.02;100.00